Time;durP1;ratioP1;P1;durP2;ratioP2;P2;SDS_P1;SDS_P2;PMS_P1;PMS_P2;Temp;Humidity;BMP_temperature;BMP_pressure;BME280_temperature;BME280_humidity;BME280_pressure;Samples;Min_cycle;Max_cycle;Signal;HPM_P1;HPM_P2
2021/10/25 00:01:07;;;;;;;29.73;16.90;;;5.70;99.90;;;;;;5049480;28;20481;-57
2021/10/25 00:03:33;;;;;;;27.17;17.20;;;5.60;99.90;;;;;;5049919;28;20863;-57
2021/10/25 00:05:59;;;;;;;26.45;17.55;;;5.60;99.90;;;;;;5081142;28;20390;-58
2021/10/25 00:08:25;;;;;;;29.52;18.27;;;5.70;99.90;;;;;;5048094;28;20761;-58
2021/10/25 00:10:50;;;;;;;30.60;18.00;;;5.70;99.90;;;;;;5048441;28;20500;-58
2021/10/25 00:13:16;;;;;;;26.58;15.80;;;5.70;99.90;;;;;;5049395;28;20815;-58
2021/10/25 00:15:42;;;;;;;26.92;15.98;;;5.60;99.90;;;;;;5048687;28;20411;-57
2021/10/25 00:18:08;;;;;;;29.07;17.30;;;5.60;99.90;;;;;;5049586;28;20370;-58
2021/10/25 00:20:34;;;;;;;28.80;18.08;;;5.60;99.90;;;;;;5049335;28;20389;-57
2021/10/25 00:23:00;;;;;;;31.42;19.25;;;5.60;99.90;;;;;;5048730;28;20477;-58
2021/10/25 00:25:26;;;;;;;28.27;17.77;;;5.60;99.90;;;;;;5049570;28;20468;-57
2021/10/25 00:27:51;;;;;;;29.73;17.35;;;5.70;99.90;;;;;;5048312;28;20881;-58
2021/10/25 00:30:17;;;;;;;31.67;18.00;;;5.70;99.90;;;;;;5081352;28;20492;-58
2021/10/25 00:32:43;;;;;;;30.48;18.67;;;5.50;99.90;;;;;;5080699;28;20416;-58
2021/10/25 00:35:09;;;;;;;31.80;18.67;;;5.60;99.90;;;;;;5048888;28;20393;-58
2021/10/25 00:37:34;;;;;;;29.15;18.00;;;5.70;99.90;;;;;;5049622;28;20396;-57
2021/10/25 00:40:00;;;;;;;27.90;17.67;;;5.70;99.90;;;;;;5048335;28;20376;-57
2021/10/25 00:42:26;;;;;;;31.10;18.80;;;5.70;99.90;;;;;;5048918;28;20386;-57
2021/10/25 00:44:52;;;;;;;31.15;18.10;;;5.80;99.90;;;;;;5048265;28;20382;-58
2021/10/25 00:47:17;;;;;;;32.70;19.30;;;5.80;99.90;;;;;;5049156;28;20396;-58
2021/10/25 00:49:44;;;;;;;31.97;19.43;;;5.70;99.90;;;;;;5046818;28;20397;-58
2021/10/25 00:52:10;;;;;;;31.92;19.33;;;5.70;99.90;;;;;;5048860;28;20415;-57
2021/10/25 00:54:36;;;;;;;29.75;18.50;;;6.60;99.90;;;;;;5049103;28;20460;-58
2021/10/25 00:57:03;;;;;;;33.90;19.40;;;5.60;99.90;;;;;;5048399;28;20839;-57
2021/10/25 00:59:30;;;;;;;30.38;19.45;;;5.60;99.90;;;;;;5049077;28;20451;-58
2021/10/25 01:01:56;;;;;;;29.07;18.00;;;5.60;99.90;;;;;;5052140;28;20567;-58
2021/10/25 01:04:22;;;;;;;29.02;17.65;;;5.60;99.90;;;;;;5052908;28;20908;-58
2021/10/25 01:06:48;;;;;;;30.52;19.27;;;5.50;99.90;;;;;;5051892;28;20475;-58
2021/10/25 01:09:16;;;;;;;29.77;19.55;;;5.60;99.90;;;;;;5051503;28;20432;-57
2021/10/25 01:11:42;;;;;;;34.58;19.52;;;5.60;99.90;;;;;;5051922;28;20885;-60
2021/10/25 01:14:08;;;;;;;31.67;19.30;;;5.60;99.90;;;;;;5052869;28;20377;-57
2021/10/25 01:16:33;;;;;;;32.30;19.23;;;5.70;99.90;;;;;;5053259;28;20389;-57
2021/10/25 01:18:59;;;;;;;34.53;19.98;;;5.60;99.90;;;;;;5052160;28;20380;-57
2021/10/25 01:21:25;;;;;;;29.10;18.23;;;5.50;99.90;;;;;;5052805;28;20900;-58
2021/10/25 01:23:52;;;;;;;33.30;19.58;;;5.50;99.90;;;;;;5051738;28;20416;-57
2021/10/25 01:26:21;;;;;;;31.30;19.80;;;5.50;99.90;;;;;;5052373;28;20375;-57
2021/10/25 01:28:48;;;;;;;34.00;19.70;;;5.50;99.90;;;;;;5051785;28;20627;-58
2021/10/25 01:31:18;;;;;;;32.35;19.17;;;5.60;99.90;;;;;;5052753;28;20377;-57
2021/10/25 01:33:48;;;;;;;31.50;18.85;;;5.60;99.90;;;;;;5051713;28;20965;-57
2021/10/25 01:36:14;;;;;;;28.92;18.08;;;5.50;99.90;;;;;;5051996;28;20369;-57
2021/10/25 01:38:41;;;;;;;29.52;17.95;;;5.40;99.90;;;;;;5051544;28;20864;-57
2021/10/25 01:41:10;;;;;;;31.60;18.88;;;5.30;99.90;;;;;;5052251;28;20444;-57
2021/10/25 01:43:37;;;;;;;31.38;18.45;;;5.40;99.90;;;;;;5052171;28;20416;-58
2021/10/25 01:46:05;;;;;;;29.63;18.33;;;5.90;99.90;;;;;;5051769;28;20389;-58
2021/10/25 01:48:31;;;;;;;29.40;18.17;;;5.50;99.90;;;;;;5052165;28;20447;-57
2021/10/25 01:50:57;;;;;;;28.90;18.30;;;5.50;99.90;;;;;;5051341;28;20486;-57
2021/10/25 01:53:23;;;;;;;31.27;18.70;;;5.40;99.90;;;;;;5046394;28;20441;-57
2021/10/25 01:55:55;;;;;;;31.60;19.55;;;5.50;99.90;;;;;;5045974;28;20480;-58
2021/10/25 01:58:21;;;;;;;30.38;18.80;;;5.40;99.90;;;;;;5042821;28;20380;-58
2021/10/25 02:00:47;;;;;;;31.53;18.57;;;5.40;99.90;;;;;;5051249;28;20389;-57
2021/10/25 02:03:13;;;;;;;30.67;19.08;;;5.50;99.90;;;;;;5051827;28;20480;-61
2021/10/25 02:05:40;;;;;;;30.60;19.17;;;5.40;99.90;;;;;;5051229;28;20468;-57
2021/10/25 02:08:06;;;;;;;31.52;18.67;;;5.40;99.90;;;;;;5051919;28;20450;-57
2021/10/25 02:10:31;;;;;;;30.33;18.77;;;5.20;99.90;;;;;;5051769;28;20439;-57
2021/10/25 02:12:57;;;;;;;31.37;19.07;;;5.20;99.90;;;;;;5051011;28;20492;-57
2021/10/25 02:15:24;;;;;;;31.65;19.13;;;5.20;99.90;;;;;;5051540;28;21203;-57
2021/10/25 02:17:51;;;;;;;31.05;18.75;;;5.20;99.90;;;;;;5051311;28;20380;-57
2021/10/25 02:20:17;;;;;;;28.40;18.70;;;5.10;99.90;;;;;;5051234;28;20464;-58
2021/10/25 02:22:43;;;;;;;32.20;19.30;;;5.00;99.90;;;;;;5050863;28;20473;-58
2021/10/25 02:25:08;;;;;;;31.97;18.93;;;5.10;99.90;;;;;;5051864;28;20929;-58
2021/10/25 02:27:34;;;;;;;32.63;19.20;;;6.00;99.90;;;;;;5051352;28;20381;-58
2021/10/25 02:29:59;;;;;;;34.75;19.77;;;5.00;99.90;;;;;;5049671;28;20415;-58
2021/10/25 02:32:25;;;;;;;30.57;18.83;;;4.90;99.90;;;;;;5051602;28;20413;-58
2021/10/25 02:34:51;;;;;;;32.30;18.50;;;5.00;99.90;;;;;;5051120;28;20407;-58
2021/10/25 02:37:18;;;;;;;29.30;18.37;;;4.90;99.90;;;;;;5051419;28;20389;-58
2021/10/25 02:39:45;;;;;;;29.15;18.30;;;4.90;99.90;;;;;;5050688;28;20405;-58
2021/10/25 02:42:12;;;;;;;28.70;18.35;;;5.00;99.90;;;;;;5050922;28;20382;-58
2021/10/25 02:44:38;;;;;;;30.85;18.30;;;5.00;99.90;;;;;;5050921;28;20386;-57
2021/10/25 02:47:04;;;;;;;28.88;18.35;;;5.00;99.90;;;;;;5083171;28;20381;-58
2021/10/25 02:49:31;;;;;;;29.75;17.85;;;5.00;99.90;;;;;;5049637;28;20725;-58
2021/10/25 02:51:56;;;;;;;31.13;18.50;;;5.00;99.90;;;;;;5050062;28;20416;-58
2021/10/25 02:54:24;;;;;;;28.58;17.70;;;4.90;99.90;;;;;;5051411;28;20385;-58
2021/10/25 02:56:52;;;;;;;28.90;17.27;;;5.00;99.90;;;;;;5050135;28;20385;-58
2021/10/25 02:59:18;;;;;;;29.85;17.83;;;5.30;99.90;;;;;;5050904;28;20393;-58
2021/10/25 03:01:44;;;;;;;29.85;17.67;;;5.00;99.90;;;;;;5050210;28;20389;-58
2021/10/25 03:04:11;;;;;;;29.08;17.73;;;5.00;99.90;;;;;;5050724;28;20454;-58
2021/10/25 03:06:37;;;;;;;32.58;16.92;;;5.00;99.90;;;;;;5050579;28;20469;-58
2021/10/25 03:09:05;;;;;;;26.40;16.70;;;5.00;99.90;;;;;;5049893;28;20409;-57
2021/10/25 03:11:31;;;;;;;28.38;17.30;;;5.00;99.90;;;;;;5050500;28;20378;-58
2021/10/25 03:13:56;;;;;;;26.70;17.80;;;5.00;99.90;;;;;;5049713;28;20439;-58
2021/10/25 03:16:23;;;;;;;27.02;17.30;;;5.00;99.90;;;;;;5050166;28;20424;-57
2021/10/25 03:18:49;;;;;;;26.33;16.30;;;5.00;99.90;;;;;;5049848;28;20404;-57
2021/10/25 03:21:16;;;;;;;27.40;16.10;;;5.10;99.90;;;;;;5050315;28;20792;-57
2021/10/25 03:23:44;;;;;;;27.40;15.90;;;5.10;99.90;;;;;;5049349;28;20382;-57
2021/10/25 03:26:09;;;;;;;29.75;16.50;;;5.10;99.90;;;;;;5050113;28;20393;-57
2021/10/25 03:28:35;;;;;;;27.83;16.40;;;5.00;99.90;;;;;;5082600;28;20385;-57
2021/10/25 03:31:01;;;;;;;22.98;15.35;;;4.90;99.90;;;;;;5049224;28;21027;-57
2021/10/25 03:33:29;;;;;;;26.23;15.43;;;5.00;99.90;;;;;;5050232;28;20467;-57
2021/10/25 03:35:54;;;;;;;26.88;15.68;;;5.00;99.90;;;;;;5049427;28;20963;-57
2021/10/25 03:38:21;;;;;;;26.38;14.82;;;5.00;99.90;;;;;;5049949;28;20468;-57
2021/10/25 03:40:50;;;;;;;25.63;15.25;;;5.00;99.90;;;;;;5049066;28;20424;-57
2021/10/25 03:43:17;;;;;;;26.92;16.02;;;5.00;99.90;;;;;;5044599;28;20447;-57
2021/10/25 03:48:36;;;;;;;27.27;16.27;;;4.90;99.90;;;;;;5049917;28;20386;-57
2021/10/25 03:51:00;;;;;;;26.40;15.20;;;4.90;99.90;;;;;;5048493;28;20397;-57
2021/10/25 03:53:38;;;;;;;27.67;16.17;;;4.90;99.90;;;;;;5050222;28;20471;-57
2021/10/25 03:56:11;;;;;;;25.55;15.23;;;4.80;99.90;;;;;;5049241;28;20393;-58
2021/10/25 03:59:12;;;;;;;23.90;14.93;;;6.10;99.90;;;;;;5049947;28;20374;-57
2021/10/25 04:25:52;;;;;;;26.27;14.93;;;4.60;99.90;;;;;;5049013;28;20381;-59
2021/10/25 04:28:21;;;;;;;29.20;15.98;;;4.60;99.90;;;;;;5049035;28;20439;-59
2021/10/25 04:30:54;;;;;;;25.67;15.80;;;4.50;99.90;;;;;;5048322;28;20386;-58
2021/10/25 04:33:19;;;;;;;25.90;16.10;;;4.50;99.90;;;;;;5049050;28;20435;-59
2021/10/25 04:35:45;;;;;;;25.27;15.73;;;4.50;99.90;;;;;;5039063;28;20896;-58
2021/10/25 04:38:10;;;;;;;26.73;16.43;;;4.50;99.90;;;;;;5028936;28;20395;-59
2021/10/25 04:40:36;;;;;;;25.30;15.63;;;4.70;99.90;;;;;;5045574;28;20848;-59
2021/10/25 04:43:02;;;;;;;24.07;15.83;;;4.50;99.90;;;;;;5041405;28;20379;-58
2021/10/25 04:45:28;;;;;;;23.85;15.55;;;4.50;99.90;;;;;;5039344;28;22289;-58
2021/10/25 04:47:54;;;;;;;25.15;16.75;;;4.60;99.90;;;;;;5037125;28;20406;-58
2021/10/25 04:50:21;;;;;;;26.15;16.05;;;4.60;99.90;;;;;;5061342;28;20759;-58
2021/10/25 04:52:47;;;;;;;25.98;16.17;;;4.60;99.90;;;;;;5046563;28;20405;-59
2021/10/25 04:55:13;;;;;;;25.52;16.20;;;4.60;99.90;;;;;;5048792;28;20382;-58
2021/10/25 04:57:38;;;;;;;25.42;15.15;;;4.60;99.90;;;;;;5048768;28;20737;-58
2021/10/25 05:00:06;;;;;;;26.10;15.77;;;4.60;99.90;;;;;;5048076;28;20469;-58
2021/10/25 05:02:32;;;;;;;26.33;15.90;;;4.60;99.90;;;;;;5048767;28;20420;-58
2021/10/25 05:04:58;;;;;;;27.52;16.15;;;4.60;99.90;;;;;;5048346;28;20393;-58
2021/10/25 05:07:24;;;;;;;26.73;15.77;;;4.60;99.90;;;;;;5049192;28;20405;-58
2021/10/25 05:09:50;;;;;;;25.37;15.77;;;4.70;99.90;;;;;;5046111;28;20888;-59
2021/10/25 05:12:15;;;;;;;24.85;15.52;;;4.70;99.90;;;;;;5049086;28;20794;-58
2021/10/25 05:14:44;;;;;;;27.95;15.50;;;4.60;99.90;;;;;;5029722;28;20431;-59
2021/10/25 05:17:10;;;;;;;26.45;15.98;;;4.70;99.90;;;;;;5028951;28;20382;-58
2021/10/25 05:19:35;;;;;;;24.33;15.93;;;4.60;99.90;;;;;;5028273;28;20463;-59
2021/10/25 05:22:01;;;;;;;29.53;16.00;;;5.20;99.90;;;;;;5027775;28;20387;-58
2021/10/25 05:24:27;;;;;;;27.33;15.17;;;4.50;99.90;;;;;;5029230;28;20441;-58
2021/10/25 05:26:53;;;;;;;24.95;15.65;;;4.50;99.90;;;;;;5028281;28;20383;-58
2021/10/25 05:29:18;;;;;;;25.90;15.90;;;5.70;99.90;;;;;;5028854;28;20418;-58
2021/10/25 05:31:45;;;;;;;28.00;16.88;;;4.60;99.90;;;;;;5033595;28;20416;-58
2021/10/25 05:34:11;;;;;;;24.13;15.57;;;4.60;99.90;;;;;;5040015;28;20496;-58
2021/10/25 05:36:37;;;;;;;26.77;16.47;;;4.70;99.90;;;;;;5034810;28;20383;-58
2021/10/25 05:39:08;;;;;;;25.83;15.77;;;6.20;99.90;;;;;;5043345;28;20394;-58
2021/10/25 05:41:34;;;;;;;27.58;16.75;;;4.60;99.90;;;;;;5042359;28;20399;-58
2021/10/25 05:44:00;;;;;;;28.23;16.35;;;4.70;99.90;;;;;;5033394;28;20394;-58
2021/10/25 05:46:26;;;;;;;26.73;16.20;;;4.70;99.90;;;;;;5041086;28;20734;-58
2021/10/25 05:48:54;;;;;;;26.48;15.95;;;4.80;99.90;;;;;;5041107;28;20410;-58
2021/10/25 05:51:19;;;;;;;27.88;16.20;;;4.80;99.90;;;;;;5051312;28;20378;-58
2021/10/25 05:53:46;;;;;;;27.83;16.93;;;4.70;99.90;;;;;;5035371;28;20766;-58
2021/10/25 05:56:12;;;;;;;27.55;16.00;;;4.70;99.90;;;;;;5032955;28;20482;-59
2021/10/25 05:58:38;;;;;;;30.02;16.80;;;4.70;99.90;;;;;;5051975;28;20519;-58
2021/10/25 06:01:11;;;;;;;24.77;15.13;;;4.70;99.90;;;;;;5042102;28;20387;-58
2021/10/25 06:03:38;;;;;;;27.65;16.40;;;4.70;99.90;;;;;;5046436;28;20917;-58
2021/10/25 06:06:04;;;;;;;24.80;15.75;;;4.60;99.90;;;;;;5042760;28;20415;-58
2021/10/25 06:08:30;;;;;;;27.33;15.25;;;4.70;99.90;;;;;;5051830;28;20468;-58
2021/10/25 06:10:55;;;;;;;27.03;15.77;;;4.80;99.90;;;;;;5049698;28;20422;-59
2021/10/25 06:13:32;;;;;;;25.30;15.20;;;4.80;99.90;;;;;;5051442;28;20402;-59
2021/10/25 06:16:13;;;;;;;25.63;15.30;;;4.90;99.90;;;;;;5050969;28;20377;-58
2021/10/25 06:18:43;;;;;;;30.03;16.47;;;4.90;99.90;;;;;;5050763;28;20413;-58
2021/10/25 06:21:09;;;;;;;28.23;15.73;;;4.80;99.90;;;;;;5051099;28;20393;-58
2021/10/25 06:23:35;;;;;;;25.50;14.50;;;4.80;99.90;;;;;;5051343;28;20741;-59
2021/10/25 06:26:02;;;;;;;25.80;15.05;;;4.80;99.90;;;;;;5050762;28;20799;-58
2021/10/25 06:28:28;;;;;;;25.77;15.30;;;4.80;99.90;;;;;;5051450;28;20389;-58
2021/10/25 06:31:02;;;;;;;21.90;14.27;;;4.90;99.90;;;;;;5050175;28;20381;-58
2021/10/25 06:33:28;;;;;;;26.48;15.35;;;5.00;99.90;;;;;;5051051;28;20436;-58
2021/10/25 06:36:02;;;;;;;24.33;15.13;;;4.90;99.90;;;;;;5050297;28;20864;-58
2021/10/25 06:38:35;;;;;;;26.25;15.80;;;6.20;99.90;;;;;;5049577;28;20409;-58
2021/10/25 06:41:02;;;;;;;23.75;15.15;;;5.20;99.90;;;;;;5050778;28;20435;-58
2021/10/25 06:43:28;;;;;;;22.42;13.65;;;5.60;99.90;;;;;;5050956;28;20385;-58
2021/10/25 06:45:55;;;;;;;25.67;15.53;;;5.40;99.90;;;;;;5050415;28;20438;-58
2021/10/25 06:48:21;;;;;;;23.92;14.70;;;5.40;99.90;;;;;;5051128;28;20382;-58
2021/10/25 06:50:48;;;;;;;24.80;15.43;;;5.50;99.90;;;;;;5049962;28;20442;-58
2021/10/25 06:53:16;;;;;;;23.45;14.60;;;5.40;99.90;;;;;;5051077;28;20428;-58
2021/10/25 06:55:41;;;;;;;22.23;14.05;;;5.50;99.90;;;;;;5050636;28;20393;-58
2021/10/25 06:58:07;;;;;;;24.73;13.70;;;6.90;99.90;;;;;;5049280;28;20381;-58
2021/10/25 07:00:33;;;;;;;25.77;14.30;;;5.80;99.90;;;;;;5050471;28;20382;-56
2021/10/25 07:02:59;;;;;;;24.80;14.37;;;6.00;99.90;;;;;;5049858;28;20393;-56
2021/10/25 07:05:25;;;;;;;22.42;14.20;;;6.20;99.90;;;;;;5050258;28;20377;-58
2021/10/25 07:07:51;;;;;;;21.30;13.43;;;6.30;99.90;;;;;;5049774;28;20385;-57
2021/10/25 07:10:17;;;;;;;25.60;13.53;;;6.30;99.90;;;;;;5050265;28;20860;-58
2021/10/25 07:12:44;;;;;;;24.35;14.45;;;6.10;99.90;;;;;;5050431;28;20417;-58
2021/10/25 07:15:10;;;;;;;24.77;13.93;;;6.10;99.90;;;;;;5049371;28;20378;-58
2021/10/25 07:17:42;;;;;;;29.20;14.40;;;6.20;99.90;;;;;;5075507;28;20411;-58
2021/10/25 07:20:28;;;;;;;23.33;13.30;;;6.30;99.90;;;;;;5045409;28;20408;-56
2021/10/25 08:12:06;;;;;;;17.55;10.60;;;13.40;99.90;;;;;;5028240;28;20441;-58
2021/10/25 08:14:35;;;;;;;19.27;11.15;;;13.10;99.90;;;;;;5029654;28;20433;-58
2021/10/25 08:17:02;;;;;;;19.17;11.30;;;12.90;99.90;;;;;;5028635;28;20437;-58
2021/10/25 08:19:30;;;;;;;16.90;11.40;;;13.10;99.90;;;;;;5029420;28;20633;-59
2021/10/25 08:22:11;;;;;;;16.67;10.95;;;13.20;99.90;;;;;;5028450;28;20444;-58
2021/10/25 08:24:43;;;;;;;16.00;10.50;;;12.60;99.90;;;;;;5029326;28;20424;-58
2021/10/25 08:27:09;;;;;;;19.85;11.90;;;12.50;99.90;;;;;;5028460;28;20993;-58
2021/10/25 08:29:36;;;;;;;17.70;11.13;;;12.00;99.90;;;;;;5029219;28;20525;-58
2021/10/25 08:39:57;;;;;;;20.38;11.07;;;11.60;99.90;;;;;;5029266;28;20387;-58
2021/10/25 08:42:27;;;;;;;18.40;11.40;;;11.30;99.90;;;;;;5029161;28;20448;-58
2021/10/25 08:45:01;;;;;;;19.08;11.40;;;11.10;99.90;;;;;;5040974;28;20409;-58
2021/10/25 08:47:46;;;;;;;20.27;11.63;;;11.20;99.90;;;;;;5047451;28;20806;-58
2021/10/25 08:50:18;;;;;;;18.20;11.25;;;11.20;99.90;;;;;;5048177;28;20398;-58
2021/10/25 08:52:45;;;;;;;16.95;11.05;;;11.00;99.90;;;;;;5048879;28;20416;-58
2021/10/25 08:55:13;;;;;;;18.58;11.23;;;11.40;99.90;;;;;;5032752;28;20390;-59
2021/10/25 08:57:40;;;;;;;18.85;11.90;;;11.80;99.90;;;;;;5044391;28;20480;-58
2021/10/25 09:00:09;;;;;;;18.20;11.07;;;12.20;99.90;;;;;;5037841;28;20560;-58
2021/10/25 09:02:35;;;;;;;17.40;11.30;;;12.70;99.90;;;;;;5036410;28;20483;-57
2021/10/25 09:05:16;;;;;;;15.50;10.30;;;13.10;99.90;;;;;;5043408;28;20789;-58
2021/10/25 09:07:50;;;;;;;16.17;10.50;;;13.60;99.90;;;;;;5047035;28;20808;-58
2021/10/25 09:10:32;;;;;;;17.25;10.80;;;13.60;99.90;;;;;;5048438;28;20409;-58
2021/10/25 09:13:07;;;;;;;15.20;10.30;;;13.50;99.90;;;;;;5047964;28;20401;-58
2021/10/25 09:15:41;;;;;;;16.85;10.95;;;13.90;99.90;;;;;;5048346;28;20745;-57
2021/10/25 09:18:13;;;;;;;13.52;9.38;;;14.50;99.90;;;;;;5047900;28;20944;-58
2021/10/25 09:20:51;;;;;;;13.48;9.30;;;15.20;99.90;;;;;;5049303;28;20396;-59
2021/10/25 09:23:23;;;;;;;14.73;9.77;;;15.10;99.90;;;;;;5052665;28;20436;-58
2021/10/25 09:26:10;;;;;;;14.15;9.80;;;15.50;99.90;;;;;;5051981;28;20381;-59
2021/10/25 09:28:40;;;;;;;14.68;10.05;;;16.80;99.90;;;;;;5052779;28;20715;-59
2021/10/25 09:31:12;;;;;;;15.93;10.70;;;17.30;99.90;;;;;;5051827;28;20396;-59
2021/10/25 09:33:40;;;;;;;18.13;12.20;;;18.10;98.00;;;;;;5052147;28;20495;-59
2021/10/25 09:36:14;;;;;;;15.75;12.50;;;18.60;96.00;;;;;;5051476;28;20424;-57
2021/10/25 09:50:02;;;;;;;15.73;13.38;;;19.20;88.30;;;;;;5050964;28;20417;-59
2021/10/25 09:52:31;;;;;;;16.35;14.18;;;18.70;90.60;;;;;;5051741;28;20409;-59
2021/10/25 09:55:08;;;;;;;18.52;13.52;;;18.30;92.00;;;;;;5051387;28;20389;-63
2021/10/25 10:00:14;;;;;;;14.90;12.30;;;17.50;92.50;;;;;;5050440;28;20385;-59
2021/10/25 10:02:44;;;;;;;17.15;12.07;;;17.00;94.40;;;;;;5051520;28;20398;-60
2021/10/25 10:05:13;;;;;;;13.10;11.38;;;17.00;94.10;;;;;;5051397;28;20386;-60
2021/10/25 10:07:40;;;;;;;14.17;11.23;;;17.00;94.70;;;;;;5051438;28;20397;-60
2021/10/25 10:10:09;;;;;;;15.27;11.50;;;17.30;94.50;;;;;;5050413;28;20845;-58
2021/10/25 10:12:35;;;;;;;17.42;11.40;;;18.00;93.80;;;;;;5051538;28;20405;-59
2021/10/25 10:15:03;;;;;;;15.70;11.40;;;18.50;92.90;;;;;;5050874;28;20398;-59
2021/10/25 10:17:53;;;;;;;15.48;11.52;;;18.60;91.50;;;;;;5051098;28;20394;-59
2021/10/25 10:20:31;;;;;;;17.35;12.00;;;18.90;91.40;;;;;;5048989;28;20397;-59
2021/10/25 10:23:01;;;;;;;15.35;12.10;;;19.50;90.40;;;;;;5050580;28;20393;-59
2021/10/25 10:25:46;;;;;;;16.63;12.25;;;19.70;88.70;;;;;;5051433;28;20373;-59
2021/10/25 10:28:15;;;;;;;15.85;12.60;;;19.40;89.70;;;;;;5050338;28;20397;-59
2021/10/25 10:30:54;;;;;;;14.77;12.18;;;19.30;88.80;;;;;;5050055;28;20526;-59
2021/10/25 10:33:54;;;;;;;16.42;12.65;;;19.30;88.90;;;;;;5051355;28;20519;-59
2021/10/25 10:36:40;;;;;;;15.10;12.60;;;19.40;89.40;;;;;;5046754;28;20394;-59
2021/10/25 10:39:12;;;;;;;21.17;14.00;;;19.10;90.30;;;;;;5049557;28;20912;-59
2021/10/25 10:41:45;;;;;;;16.35;14.65;;;19.70;90.00;;;;;;5050811;28;20727;-59
2021/10/25 10:44:13;;;;;;;19.08;14.70;;;20.60;86.20;;;;;;5050269;28;20435;-61
2021/10/25 10:46:57;;;;;;;13.57;12.10;;;21.70;81.90;;;;;;5051155;28;20385;-61
2021/10/25 10:49:27;;;;;;;16.30;13.70;;;22.30;77.00;;;;;;5050871;28;20391;-60
2021/10/25 10:52:06;;;;;;;16.17;14.48;;;23.10;73.40;;;;;;5049669;28;20792;-60
2021/10/25 10:54:50;;;;;;;11.38;7.53;;;22.70;71.50;;;;;;5050553;28;20386;-60
2021/10/25 10:58:10;;;;;;;13.45;8.50;;;22.50;71.00;;;;;;5050456;28;20389;-60
2021/10/25 11:00:09;;;;;;;16.63;15.10;;;22.40;72.70;;;;;;5048882;28;20809;-59
2021/10/25 11:02:37;;;;;;;15.60;14.00;;;23.00;69.50;;;;;;5050399;28;20389;-60
2021/10/25 11:05:08;;;;;;;13.90;9.15;;;22.80;68.80;;;;;;5048658;28;20481;-60
2021/10/25 11:07:40;;;;;;;13.55;12.15;;;22.20;70.00;;;;;;5050598;28;20415;-60
2021/10/25 11:10:09;;;;;;;15.27;9.48;;;22.60;68.90;;;;;;5049262;28;20957;-60
2021/10/25 11:12:41;;;;;;;13.30;7.75;;;22.10;69.80;;;;;;5050613;28;20415;-60
2021/10/25 11:15:10;;;;;;;14.30;12.75;;;21.30;70.00;;;;;;5049513;28;20381;-60
2021/10/25 11:17:36;;;;;;;15.03;12.33;;;20.40;72.60;;;;;;5050460;28;20389;-58
2021/10/25 11:20:03;;;;;;;13.02;11.65;;;19.90;76.40;;;;;;5049752;28;20392;-58
2021/10/25 11:22:32;;;;;;;14.40;11.43;;;19.60;78.00;;;;;;5049992;28;20386;-58
2021/10/25 11:24:59;;;;;;;13.88;11.10;;;19.50;77.50;;;;;;5049287;28;20390;-58
2021/10/25 11:27:34;;;;;;;16.55;11.25;;;19.60;78.10;;;;;;5049962;28;20373;-58
2021/10/25 11:30:18;;;;;;;15.20;11.05;;;19.80;78.50;;;;;;5049444;28;20390;-58
2021/10/25 11:32:45;;;;;;;14.55;11.40;;;19.60;77.00;;;;;;5049987;28;20500;-58
2021/10/25 11:35:13;;;;;;;13.52;10.70;;;19.60;78.50;;;;;;5049170;28;20447;-58
2021/10/25 11:37:52;;;;;;;15.80;11.63;;;19.40;78.50;;;;;;5049688;28;20417;-57
2021/10/25 11:40:23;;;;;;;13.30;10.50;;;19.10;78.50;;;;;;5049842;28;20431;-58
2021/10/25 11:42:49;;;;;;;13.13;10.77;;;18.70;81.70;;;;;;5049942;28;20519;-58
2021/10/25 11:45:16;;;;;;;13.52;10.27;;;18.70;80.80;;;;;;5048868;28;20373;-58
2021/10/25 11:47:44;;;;;;;15.38;9.68;;;18.80;79.80;;;;;;5049797;28;20394;-57
2021/10/25 11:50:20;;;;;;;11.63;9.40;;;18.80;78.70;;;;;;5048894;28;21180;-58
2021/10/25 11:52:49;;;;;;;13.00;8.95;;;19.00;78.90;;;;;;5049688;28;20444;-58
2021/10/25 11:55:17;;;;;;;14.07;9.82;;;19.00;79.90;;;;;;5048471;28;20447;-58
2021/10/25 11:58:13;;;;;;;15.45;9.50;;;19.30;79.40;;;;;;5035099;28;20391;-58
2021/10/25 12:00:44;;;;;;;14.00;8.68;;;19.00;77.50;;;;;;5029806;28;20878;-58
2021/10/25 12:03:12;;;;;;;11.45;9.27;;;18.90;78.10;;;;;;5029268;28;20383;-58
2021/10/25 12:05:39;;;;;;;12.48;9.68;;;19.00;77.70;;;;;;5029620;28;20410;-58
2021/10/25 12:08:08;;;;;;;11.27;9.02;;;19.10;79.50;;;;;;5028579;28;20391;-57
2021/10/25 12:10:36;;;;;;;12.50;8.68;;;19.10;77.70;;;;;;5028648;28;20426;-58
2021/10/25 12:13:04;;;;;;;13.38;9.20;;;18.90;76.10;;;;;;5028749;28;20407;-58
2021/10/25 12:15:33;;;;;;;14.50;9.10;;;18.60;76.70;;;;;;5029368;28;20394;-59
2021/10/25 12:18:01;;;;;;;13.82;8.75;;;18.50;78.20;;;;;;5028767;28;20398;-58
2021/10/25 12:20:32;;;;;;;11.40;8.60;;;18.40;78.60;;;;;;5029259;28;20418;-58
2021/10/25 12:23:05;;;;;;;10.93;8.60;;;18.60;80.50;;;;;;5028047;28;20529;-62
2021/10/25 12:25:32;;;;;;;12.67;8.67;;;18.90;79.80;;;;;;5029120;28;20437;-59
2021/10/25 12:28:11;;;;;;;13.20;8.68;;;19.00;78.70;;;;;;5028625;28;20660;-59
2021/10/25 12:30:37;;;;;;;11.02;8.60;;;19.10;79.90;;;;;;5029167;28;20873;-58
2021/10/25 12:33:03;;;;;;;11.38;9.30;;;19.20;76.70;;;;;;5028294;28;20403;-58
2021/10/25 12:35:41;;;;;;;9.80;7.67;;;19.20;77.40;;;;;;5029071;28;20383;-58
2021/10/25 12:38:13;;;;;;;11.30;7.88;;;19.30;77.10;;;;;;5028254;28;20494;-58
2021/10/25 12:40:48;;;;;;;10.23;8.13;;;19.30;76.40;;;;;;5029221;28;20495;-58
2021/10/25 12:43:16;;;;;;;8.70;7.50;;;19.50;77.90;;;;;;5028288;28;20390;-58
2021/10/25 12:45:44;;;;;;;10.13;7.72;;;19.70;75.30;;;;;;5029206;28;20395;-58
2021/10/25 12:48:15;;;;;;;10.20;7.43;;;19.80;75.60;;;;;;5027957;28;20383;-58
2021/10/25 12:50:44;;;;;;;11.85;7.50;;;19.90;76.40;;;;;;5029210;28;20502;-58
2021/10/25 12:53:13;;;;;;;10.93;8.07;;;20.00;74.50;;;;;;5027702;28;20473;-59
2021/10/25 12:55:42;;;;;;;10.77;7.13;;;20.30;75.80;;;;;;5029552;28;20386;-58
2021/10/25 12:58:10;;;;;;;15.88;8.93;;;20.30;76.80;;;;;;5050828;28;20385;-61
2021/10/25 13:00:37;;;;;;;9.57;7.40;;;20.50;74.00;;;;;;5052216;28;20400;-59
2021/10/25 13:03:09;;;;;;;10.70;7.65;;;20.60;73.10;;;;;;5052006;28;20470;-61
2021/10/25 13:05:37;;;;;;;11.50;8.10;;;20.90;72.60;;;;;;5085093;28;20392;-59
2021/10/25 13:08:05;;;;;;;9.00;7.30;;;20.70;74.80;;;;;;5052079;28;20425;-59
2021/10/25 13:10:39;;;;;;;11.15;8.70;;;20.60;73.30;;;;;;5052428;28;20409;-59
2021/10/25 13:13:09;;;;;;;11.75;7.80;;;20.70;73.20;;;;;;5051966;28;20415;-60
2021/10/25 13:15:37;;;;;;;10.60;7.80;;;20.70;72.80;;;;;;5084827;28;20385;-61
2021/10/25 13:18:05;;;;;;;10.57;7.73;;;20.90;73.70;;;;;;5051735;28;20374;-59
2021/10/25 13:20:33;;;;;;;9.60;6.95;;;20.80;71.60;;;;;;5084683;28;20830;-59
2021/10/25 13:23:00;;;;;;;10.23;7.50;;;20.70;72.50;;;;;;5051406;28;20381;-59
2021/10/25 13:25:27;;;;;;;10.93;7.30;;;20.70;73.70;;;;;;5052383;28;20879;-58
2021/10/25 13:27:54;;;;;;;10.50;7.50;;;20.90;74.00;;;;;;5051588;28;20464;-61
2021/10/25 13:30:22;;;;;;;9.93;7.10;;;21.00;73.50;;;;;;5084352;28;20443;-60
2021/10/25 13:32:48;;;;;;;9.98;7.40;;;20.90;72.00;;;;;;5052118;28;20454;-58
2021/10/25 13:35:15;;;;;;;8.60;6.38;;;20.80;71.90;;;;;;5051166;28;20708;-59
2021/10/25 13:37:45;;;;;;;8.80;6.90;;;20.60;71.90;;;;;;5052445;28;20389;-60
2021/10/25 13:40:13;;;;;;;11.05;6.93;;;20.50;71.70;;;;;;5051142;28;21074;-59
2021/10/25 13:42:39;;;;;;;8.13;6.43;;;20.40;69.60;;;;;;5052444;28;20472;-59
2021/10/25 13:45:05;;;;;;;8.73;6.70;;;20.40;71.30;;;;;;5051574;28;20381;-59
2021/10/25 13:47:31;;;;;;;9.52;7.18;;;20.50;68.60;;;;;;5050644;28;20396;-58
2021/10/25 13:49:57;;;;;;;8.68;6.85;;;20.60;69.50;;;;;;5051684;28;20373;-59
2021/10/25 13:52:24;;;;;;;8.27;6.35;;;20.70;68.60;;;;;;5051844;28;20834;-59
2021/10/25 13:54:50;;;;;;;9.80;6.73;;;20.60;69.50;;;;;;5051593;28;20754;-59
2021/10/25 13:57:22;;;;;;;8.32;7.13;;;20.60;68.60;;;;;;5037948;28;20387;-59
2021/10/25 13:59:49;;;;;;;9.90;6.78;;;20.50;69.00;;;;;;5031730;28;20416;-59
2021/10/25 14:02:16;;;;;;;9.45;6.57;;;20.50;69.90;;;;;;5030594;28;21252;-59
2021/10/25 14:04:51;;;;;;;9.23;6.47;;;20.40;69.60;;;;;;5031699;28;20388;-60
2021/10/25 14:07:21;;;;;;;12.17;8.00;;;21.20;71.00;;;;;;5030426;28;20410;-60
2021/10/25 14:09:55;;;;;;;9.73;6.25;;;20.20;71.60;;;;;;5031034;28;20430;-59
2021/10/25 14:12:27;;;;;;;8.60;6.97;;;20.20;69.20;;;;;;5031479;28;20957;-60
2021/10/25 14:15:04;;;;;;;9.55;6.60;;;20.30;68.30;;;;;;5030669;28;20775;-60
2021/10/25 14:17:30;;;;;;;7.97;6.45;;;19.20;70.20;;;;;;5031870;28;20391;-60
2021/10/25 14:19:56;;;;;;;8.50;6.43;;;20.30;68.50;;;;;;5030330;28;20405;-61
2021/10/25 14:22:22;;;;;;;7.80;6.38;;;20.20;68.10;;;;;;5031194;28;20880;-60